createdAt,value
2022-11-28T00:00:33.453Z,1.06
2022-11-28T00:05:39.158Z,0.99
2022-11-28T00:10:46.341Z,0.87
2022-11-28T00:15:58.058Z,0.96
2022-11-28T00:21:02.928Z,0.79
2022-11-28T00:26:09.362Z,0.99
2022-11-28T00:31:16.495Z,0.84
2022-11-28T00:36:20.611Z,0.86
2022-11-28T00:41:27.085Z,0.91
2022-11-28T00:46:32.546Z,0.87
2022-11-28T00:51:36.762Z,0.81
2022-11-28T00:56:41.627Z,0.82
2022-11-28T01:01:47.111Z,0.72
2022-11-28T01:06:52.267Z,0.76
2022-11-28T01:11:56.609Z,0.77
2022-11-28T01:17:02.066Z,1.20
2022-11-28T01:22:06.523Z,1.18
2022-11-28T01:27:10.723Z,1.00
2022-11-28T01:32:16.616Z,1.10
2022-11-28T01:37:20.808Z,1.26
2022-11-28T01:42:25.195Z,1.10
2022-11-28T01:47:32.138Z,1.03
2022-11-28T01:52:39.465Z,0.93
2022-11-28T01:57:43.648Z,1.08
2022-11-28T02:02:50.931Z,1.00
2022-11-28T02:07:55.209Z,0.72
2022-11-28T02:13:14.037Z,0.67
2022-11-28T02:18:33.780Z,0.65
2022-11-28T02:24:03.654Z,0.73
2022-11-28T02:29:42.776Z,0.66
2022-11-28T02:34:56.322Z,0.78
2022-11-28T02:40:10.374Z,0.83
2022-11-28T02:45:23.409Z,0.65
2022-11-28T02:50:34.980Z,0.48
2022-11-28T02:55:41.373Z,0.63
2022-11-28T03:00:47.733Z,0.61
2022-11-28T03:05:59.682Z,0.37
2022-11-28T03:11:09.719Z,0.33
2022-11-28T03:16:22.771Z,0.58
2022-11-28T03:21:41.749Z,0.69
2022-11-28T03:26:53.918Z,0.83
2022-11-28T03:32:01.712Z,0.98
2022-11-28T03:37:12.994Z,0.54
2022-11-28T03:42:21.018Z,0.72
2022-11-28T03:47:28.504Z,0.55
2022-11-28T03:52:39.761Z,0.51
2022-11-28T03:57:50.521Z,0.70
2022-11-28T04:03:02.194Z,0.62
2022-11-28T04:08:18.042Z,0.71
2022-11-28T04:13:26.369Z,0.57
2022-11-28T04:18:38.318Z,0.40
2022-11-28T04:23:47.561Z,0.53
2022-11-28T04:28:54.596Z,0.56
2022-11-28T04:34:02.554Z,0.72
2022-11-28T04:39:13.919Z,0.70
2022-11-28T04:44:23.302Z,0.63
2022-11-28T04:49:28.591Z,0.46
2022-11-28T04:54:42.141Z,0.46
2022-11-28T04:59:48.460Z,0.49
2022-11-28T05:04:55.848Z,0.44
2022-11-28T05:10:01.626Z,0.53
2022-11-28T05:15:06.824Z,0.31
2022-11-28T05:20:11.504Z,0.22
2022-11-28T05:25:17.157Z,0.34
2022-11-28T05:30:21.310Z,0.40
2022-11-28T05:35:26.916Z,0.26
2022-11-28T05:40:32.272Z,0.25
2022-11-28T05:45:36.364Z,0.44
2022-11-28T05:50:40.901Z,0.55
2022-11-28T05:55:47.153Z,0.45
2022-11-28T06:00:51.196Z,0.48
2022-11-28T06:05:55.156Z,0.51
2022-11-28T06:11:01.008Z,0.72
2022-11-28T06:16:08.890Z,0.80
2022-11-28T06:21:14.760Z,0.73
2022-11-28T06:26:23.688Z,0.58
2022-11-28T06:31:30.097Z,0.73
2022-11-28T06:36:35.192Z,0.86
2022-11-28T06:41:40.600Z,0.73
2022-11-28T06:46:45.339Z,0.74
2022-11-28T06:51:49.828Z,0.93
2022-11-28T06:56:55.537Z,0.79
2022-11-28T07:02:07.186Z,0.73
2022-11-28T07:07:16.367Z,0.78
2022-11-28T07:12:22.183Z,0.87
2022-11-28T07:17:26.323Z,1.21
2022-11-28T07:22:30.498Z,1.25
2022-11-28T07:27:35.978Z,1.19
2022-11-28T07:32:41.775Z,1.06
2022-11-28T07:37:45.809Z,1.24
2022-11-28T07:42:52.020Z,1.05
2022-11-28T07:47:56.397Z,1.67
2022-11-28T07:53:05.636Z,1.72
2022-11-28T07:58:12.623Z,1.84
2022-11-28T08:03:17.031Z,1.41
2022-11-28T08:08:21.644Z,1.83
2022-11-28T08:13:28.496Z,2.04
2022-11-28T08:18:32.598Z,2.28
2022-11-28T08:23:37.587Z,2.44
2022-11-28T08:28:43.802Z,2.46
2022-11-28T08:33:50.049Z,2.60
2022-11-28T08:39:03.845Z,2.56
2022-11-28T08:44:19.948Z,2.77
2022-11-28T08:49:23.972Z,2.71
2022-11-28T08:54:28.223Z,3.26
2022-11-28T08:59:34.951Z,3.51
2022-11-28T09:04:39.364Z,3.54
2022-11-28T09:09:43.900Z,3.63
2022-11-28T09:14:49.662Z,3.32
2022-11-28T09:19:53.730Z,3.49
2022-11-28T09:24:57.752Z,3.56
2022-11-28T09:30:03.216Z,3.64
2022-11-28T09:35:08.066Z,3.77
2022-11-28T09:40:18.576Z,3.83
2022-11-28T09:45:26.377Z,3.34
2022-11-28T09:50:35.417Z,3.59
2022-11-28T09:55:42.020Z,4.01
2022-11-28T10:00:55.408Z,4.10
2022-11-28T10:06:08.894Z,3.55
2022-11-28T10:11:21.240Z,3.05
2022-11-28T10:16:45.273Z,3.08
2022-11-28T10:21:58.998Z,3.49
2022-11-28T10:27:06.160Z,2.79
2022-11-28T10:32:18.114Z,3.63
2022-11-28T10:37:27.354Z,3.92
2022-11-28T10:42:39.268Z,3.65
2022-11-28T10:48:38.363Z,3.77
2022-11-28T10:53:48.891Z,2.84
2022-11-28T10:58:59.558Z,2.51
2022-11-28T11:04:04.137Z,2.65
2022-11-28T11:09:10.932Z,2.91
2022-11-28T11:14:15.513Z,3.08
2022-11-28T11:19:28.443Z,2.75
2022-11-28T11:24:33.990Z,3.25
2022-11-28T11:29:40.579Z,3.39
2022-11-28T11:34:46.947Z,3.46
2022-11-28T11:39:54.134Z,3.32
2022-11-28T11:44:58.853Z,3.20
2022-11-28T11:50:05.811Z,3.18
2022-11-28T11:55:16.683Z,3.43
2022-11-28T12:00:23.800Z,3.36
2022-11-28T12:05:46.732Z,3.53
2022-11-28T12:11:06.220Z,3.36
2022-11-28T12:16:25.994Z,3.05
2022-11-28T12:21:41.796Z,2.90
2022-11-28T12:26:52.199Z,2.91
2022-11-28T12:32:11.056Z,2.77
2022-11-28T12:37:33.096Z,3.12
2022-11-28T12:43:03.388Z,3.00
2022-11-28T12:48:19.519Z,3.33
2022-11-28T12:53:42.042Z,3.09
2022-11-28T12:58:52.708Z,3.00
2022-11-28T13:04:06.962Z,3.24
2022-11-28T13:09:26.997Z,2.95
2022-11-28T13:14:43.594Z,2.76
2022-11-28T13:19:53.963Z,2.51
2022-11-28T13:25:05.671Z,2.34
2022-11-28T13:30:22.639Z,2.79
2022-11-28T13:35:28.868Z,2.15
2022-11-28T13:40:38.960Z,2.10
2022-11-28T13:45:46.539Z,2.22
2022-11-28T13:51:01.698Z,2.28
2022-11-28T13:56:24.461Z,2.09
2022-11-28T14:01:32.827Z,2.34
2022-11-28T14:06:45.255Z,2.17
2022-11-28T14:12:01.938Z,1.96
2022-11-28T14:17:23.838Z,1.95
2022-11-28T14:22:40.470Z,2.03
2022-11-28T14:27:54.756Z,1.86
2022-11-28T14:33:07.497Z,1.86
2022-11-28T14:38:42.552Z,1.88
2022-11-28T14:43:47.964Z,1.99
2022-11-28T14:49:24.348Z,2.25
2022-11-28T14:54:31.187Z,2.09
2022-11-28T14:59:40.077Z,1.75
2022-11-28T15:05:01.020Z,1.74
2022-11-28T15:10:12.221Z,1.88
2022-11-28T15:15:19.160Z,1.99
2022-11-28T15:20:30.129Z,1.56
2022-11-28T15:25:37.415Z,1.50
2022-11-28T15:30:44.963Z,1.51
2022-11-28T15:36:03.096Z,1.54
2022-11-28T15:41:07.220Z,1.63
2022-11-28T15:46:20.792Z,1.50
2022-11-28T15:51:38.903Z,1.18
2022-11-28T15:56:57.979Z,1.62
2022-11-28T16:02:07.160Z,1.47
2022-11-28T16:07:16.016Z,1.63
2022-11-28T16:12:20.323Z,1.23
2022-11-28T16:17:28.227Z,1.47
2022-11-28T16:22:37.915Z,1.73
2022-11-28T16:27:45.769Z,1.76
2022-11-28T16:32:50.360Z,1.88
2022-11-28T16:38:05.494Z,1.86
2022-11-28T16:43:21.461Z,1.97
2022-11-28T16:48:27.423Z,1.86
2022-11-28T16:53:44.845Z,1.87
2022-11-28T16:58:48.805Z,1.87
2022-11-28T17:03:55.631Z,1.51
2022-11-28T17:09:01.437Z,1.70
2022-11-28T17:14:11.714Z,1.66
2022-11-28T17:19:17.795Z,1.56
2022-11-28T17:24:25.790Z,1.46
2022-11-28T17:29:29.984Z,1.59
2022-11-28T17:34:36.336Z,1.64
2022-11-28T17:40:02.616Z,1.66
2022-11-28T17:45:14.395Z,1.68
2022-11-28T17:50:18.872Z,1.70
2022-11-28T17:55:24.918Z,1.64
2022-11-28T18:00:29.397Z,1.69
2022-11-28T18:05:37.069Z,1.70
2022-11-28T18:10:42.732Z,1.60
2022-11-28T18:15:48.706Z,1.68
2022-11-28T18:20:52.768Z,1.61
2022-11-28T18:25:58.424Z,1.62
2022-11-28T18:31:08.986Z,1.72
2022-11-28T18:36:14.886Z,1.80
2022-11-28T18:41:22.050Z,1.87
2022-11-28T18:46:26.860Z,1.64
2022-11-28T18:51:33.712Z,1.62
2022-11-28T18:56:39.723Z,1.63
2022-11-28T19:01:44.675Z,1.43
2022-11-28T19:06:48.789Z,1.35
2022-11-28T19:11:55.281Z,1.47
2022-11-28T19:17:02.044Z,1.71
2022-11-28T19:22:07.853Z,1.60
2022-11-28T19:27:14.673Z,1.71
2022-11-28T19:32:19.901Z,1.84
2022-11-28T19:37:27.279Z,1.73
2022-11-28T19:42:32.891Z,1.69
2022-11-28T19:47:40.377Z,1.76
2022-11-28T19:52:44.317Z,1.78
2022-11-28T19:57:51.304Z,1.56
2022-11-28T20:02:55.233Z,1.88
2022-11-28T20:08:00.017Z,1.73
2022-11-28T20:13:06.502Z,1.70
2022-11-28T20:18:10.649Z,1.63
2022-11-28T20:23:14.676Z,1.81
2022-11-28T20:28:21.663Z,1.77
2022-11-28T20:33:25.685Z,1.77
2022-11-28T20:38:30.808Z,1.63
2022-11-28T20:43:38.510Z,1.70
2022-11-28T20:48:43.432Z,1.55
2022-11-28T20:53:48.132Z,1.35
2022-11-28T20:58:54.052Z,1.47
2022-11-28T21:03:58.552Z,1.50
2022-11-28T21:09:02.652Z,1.33
2022-11-28T21:14:08.483Z,1.37
2022-11-28T21:19:13.396Z,1.54
2022-11-28T21:24:17.534Z,1.16
2022-11-28T21:29:24.061Z,1.10
2022-11-28T21:34:28.202Z,1.05
2022-11-28T21:39:32.293Z,0.99
2022-11-28T21:44:38.090Z,1.01
2022-11-28T21:49:42.574Z,0.98
2022-11-28T21:54:47.165Z,1.15
2022-11-28T21:59:52.835Z,1.28
2022-11-28T22:04:56.902Z,1.44
2022-11-28T22:10:00.986Z,1.37
2022-11-28T22:15:07.870Z,1.64
2022-11-28T22:20:13.087Z,1.50
2022-11-28T22:25:17.423Z,1.51
2022-11-28T22:30:23.936Z,1.50
2022-11-28T22:35:28.008Z,1.40
2022-11-28T22:40:32.014Z,1.51
2022-11-28T22:45:37.716Z,1.42
2022-11-28T22:50:41.874Z,1.27
2022-11-28T22:55:45.957Z,1.46
2022-11-28T23:00:52.300Z,1.47
2022-11-28T23:05:56.442Z,1.48
2022-11-28T23:11:00.594Z,1.40
2022-11-28T23:16:14.859Z,1.20
2022-11-28T23:21:22.701Z,1.31
2022-11-28T23:26:28.155Z,1.24
2022-11-28T23:31:35.361Z,1.29
2022-11-28T23:36:42.766Z,1.08
2022-11-28T23:41:47.729Z,0.98
2022-11-28T23:46:53.271Z,1.04
2022-11-28T23:51:57.283Z,0.91
2022-11-28T23:57:01.314Z,1.00
